createdAt,value
2022-10-15T00:01:49.163Z,20.31
2022-10-15T00:04:15.509Z,20.37
2022-10-15T00:06:41.871Z,20.41
2022-10-15T00:09:08.448Z,20.42
2022-10-15T00:11:34.773Z,20.45
2022-10-15T00:14:01.060Z,20.47
2022-10-15T00:16:28.134Z,20.48
2022-10-15T00:18:56.972Z,20.49
2022-10-15T00:21:23.368Z,20.52
2022-10-15T00:23:49.690Z,20.55
2022-10-15T00:26:17.303Z,20.55
2022-10-15T00:28:44.012Z,20.57
2022-10-15T00:31:11.377Z,20.57
2022-10-15T00:33:38.418Z,20.54
2022-10-15T00:36:07.290Z,20.43
2022-10-15T00:38:33.833Z,20.33
2022-10-15T00:41:00.168Z,20.28
2022-10-15T00:43:38.424Z,20.25
2022-10-15T00:46:05.048Z,20.32
2022-10-15T00:48:31.708Z,20.37
2022-10-15T00:51:01.026Z,20.41
2022-10-15T00:53:28.689Z,20.44
2022-10-15T00:55:55.019Z,20.45
2022-10-15T00:58:22.386Z,20.48
2022-10-15T01:00:48.807Z,20.50
2022-10-15T01:03:15.182Z,20.51
2022-10-15T01:05:43.409Z,20.53
2022-10-15T01:08:09.767Z,20.54
2022-10-15T01:10:44.710Z,20.54
2022-10-15T01:13:14.574Z,20.55
2022-10-15T01:15:45.475Z,20.58
2022-10-15T01:18:14.534Z,20.55
2022-10-15T01:20:47.976Z,20.44
2022-10-15T01:23:29.531Z,20.36
2022-10-15T01:26:05.701Z,20.31
2022-10-15T01:28:40.693Z,20.25
2022-10-15T01:31:12.654Z,20.22
2022-10-15T01:33:42.674Z,20.21
2022-10-15T01:36:14.083Z,20.30
2022-10-15T01:38:46.250Z,20.35
2022-10-15T01:41:16.156Z,20.37
2022-10-15T01:43:44.997Z,20.40
2022-10-15T01:46:14.459Z,20.43
2022-10-15T01:48:41.777Z,20.46
2022-10-15T01:51:10.381Z,20.47
2022-10-15T01:53:38.009Z,20.48
2022-10-15T01:56:06.228Z,20.50
2022-10-15T01:58:34.710Z,20.53
2022-10-15T02:01:01.306Z,20.53
2022-10-15T02:03:28.958Z,20.54
2022-10-15T02:05:57.975Z,20.56
2022-10-15T02:08:28.515Z,20.55
2022-10-15T02:10:58.865Z,20.44
2022-10-15T02:13:32.083Z,20.35
2022-10-15T02:16:02.339Z,20.31
2022-10-15T02:18:34.769Z,20.26
2022-10-15T02:21:02.912Z,20.22
2022-10-15T02:23:33.712Z,20.25
2022-10-15T02:26:00.183Z,20.32
2022-10-15T02:28:28.020Z,20.37
2022-10-15T02:30:56.576Z,20.40
2022-10-15T02:33:23.617Z,20.42
2022-10-15T02:35:51.902Z,20.45
2022-10-15T02:38:20.899Z,20.46
2022-10-15T02:40:48.261Z,20.48
2022-10-15T02:43:15.333Z,20.51
2022-10-15T02:45:41.895Z,20.54
2022-10-15T02:48:08.279Z,20.54
2022-10-15T02:50:34.610Z,20.56
2022-10-15T02:53:02.219Z,20.56
2022-10-15T02:55:28.540Z,20.47
2022-10-15T02:57:54.944Z,20.38
2022-10-15T03:00:21.386Z,20.32
2022-10-15T03:02:47.714Z,20.26
2022-10-15T03:05:14.276Z,20.23
2022-10-15T03:07:40.656Z,20.26
2022-10-15T03:10:08.512Z,20.32
2022-10-15T03:12:35.171Z,20.36
2022-10-15T03:15:01.870Z,20.40
2022-10-15T03:17:28.233Z,20.41
2022-10-15T03:19:55.549Z,20.45
2022-10-15T03:22:21.907Z,20.49
2022-10-15T03:24:48.266Z,20.51
2022-10-15T03:27:15.942Z,20.52
2022-10-15T03:29:42.377Z,20.53
2022-10-15T03:32:08.710Z,20.54
2022-10-15T03:34:35.210Z,20.56
2022-10-15T03:37:01.562Z,20.58
2022-10-15T03:39:27.889Z,20.54
2022-10-15T03:41:54.280Z,20.44
2022-10-15T03:44:22.053Z,20.36
2022-10-15T03:46:48.482Z,20.32
2022-10-15T03:49:14.862Z,20.26
2022-10-15T03:51:41.296Z,20.24
2022-10-15T03:54:07.742Z,20.23
2022-10-15T03:56:34.228Z,20.30
2022-10-15T03:59:00.590Z,20.35
2022-10-15T04:01:28.378Z,20.39
2022-10-15T04:03:54.749Z,20.44
2022-10-15T04:06:21.185Z,20.45
2022-10-15T04:08:47.602Z,20.47
2022-10-15T04:11:13.986Z,20.49
2022-10-15T04:13:40.420Z,20.51
2022-10-15T04:16:06.975Z,20.52
2022-10-15T04:18:34.664Z,20.53
2022-10-15T04:21:01.364Z,20.54
2022-10-15T04:23:27.700Z,20.56
2022-10-15T04:25:54.021Z,20.56
2022-10-15T04:28:20.455Z,20.48
2022-10-15T04:30:46.809Z,20.40
2022-10-15T04:33:13.140Z,20.33
2022-10-15T04:35:40.840Z,20.28
2022-10-15T04:38:07.152Z,20.24
2022-10-15T04:40:33.510Z,20.21
2022-10-15T04:42:59.813Z,20.18
2022-10-15T04:45:26.228Z,20.24
2022-10-15T04:47:52.682Z,20.31
2022-10-15T04:50:19.006Z,20.35
2022-10-15T04:52:46.645Z,20.38
2022-10-15T04:55:12.953Z,20.41
2022-10-15T04:57:39.263Z,20.44
2022-10-15T05:00:06.118Z,20.46
2022-10-15T05:02:32.517Z,20.47
2022-10-15T05:04:58.934Z,20.49
2022-10-15T05:07:25.775Z,20.49
2022-10-15T05:09:53.541Z,20.54
2022-10-15T05:12:19.853Z,20.53
2022-10-15T05:14:46.206Z,20.55
2022-10-15T05:17:12.613Z,20.54
2022-10-15T05:19:39.028Z,20.53
2022-10-15T05:22:05.339Z,20.42
2022-10-15T05:24:31.641Z,20.32
2022-10-15T05:27:01.826Z,20.26
2022-10-15T05:29:29.454Z,20.23
2022-10-15T05:31:55.802Z,20.26
2022-10-15T05:34:22.107Z,20.33
2022-10-15T05:36:48.400Z,20.36
2022-10-15T05:39:14.740Z,20.40
2022-10-15T05:41:41.059Z,20.44
2022-10-15T05:44:08.676Z,20.46
2022-10-15T05:46:35.012Z,20.46
2022-10-15T05:49:01.447Z,20.46
2022-10-15T05:51:28.297Z,20.48
2022-10-15T05:53:54.839Z,20.51
2022-10-15T05:56:21.640Z,20.52
2022-10-15T05:58:48.032Z,20.53
2022-10-15T06:01:15.714Z,20.53
2022-10-15T06:03:42.896Z,20.57
2022-10-15T06:06:14.624Z,20.49
2022-10-15T06:08:40.939Z,20.39
2022-10-15T06:11:09.426Z,20.34
2022-10-15T06:13:37.437Z,20.27
2022-10-15T06:16:03.922Z,20.23
2022-10-15T06:18:31.556Z,20.24
2022-10-15T06:20:58.316Z,20.31
2022-10-15T06:23:24.714Z,20.34
2022-10-15T06:25:51.132Z,20.38
2022-10-15T06:28:17.606Z,20.42
2022-10-15T06:30:44.111Z,20.44
2022-10-15T06:35:39.093Z,20.46
2022-10-15T06:38:05.476Z,20.48
2022-10-15T06:40:31.888Z,20.48
2022-10-15T06:43:02.866Z,20.49
2022-10-15T06:45:29.204Z,20.53
2022-10-15T06:47:55.649Z,20.53
2022-10-15T06:50:21.940Z,20.53
2022-10-15T06:52:49.692Z,20.51
2022-10-15T06:55:16.174Z,20.38
2022-10-15T06:57:42.484Z,20.31
2022-10-15T07:00:09.217Z,20.25
2022-10-15T07:02:35.676Z,20.20
2022-10-15T07:05:02.057Z,20.25
2022-10-15T07:07:28.391Z,20.33
2022-10-15T07:09:56.065Z,20.37
2022-10-15T07:12:22.868Z,20.40
2022-10-15T07:14:49.447Z,20.42
2022-10-15T07:17:15.988Z,20.43
2022-10-15T07:19:42.380Z,20.46
2022-10-15T07:22:08.719Z,20.46
2022-10-15T07:24:35.177Z,20.48
2022-10-15T07:27:08.351Z,20.50
2022-10-15T07:29:44.706Z,20.51
2022-10-15T07:32:11.045Z,20.51
2022-10-15T07:34:37.356Z,20.53
2022-10-15T07:37:03.678Z,20.54
2022-10-15T07:39:30.090Z,20.48
2022-10-15T07:41:56.637Z,20.40
2022-10-15T07:44:24.375Z,20.32
2022-10-15T07:46:50.726Z,20.25
2022-10-15T07:49:17.206Z,20.20
2022-10-15T07:51:43.568Z,20.23
2022-10-15T07:54:09.912Z,20.30
2022-10-15T07:56:36.372Z,20.33
2022-10-15T07:59:02.888Z,20.36
2022-10-15T08:01:30.522Z,20.42
2022-10-15T08:03:56.881Z,20.41
2022-10-15T08:06:23.274Z,20.42
2022-10-15T08:08:49.622Z,20.45
2022-10-15T08:11:16.578Z,20.46
2022-10-15T08:13:43.664Z,20.47
2022-10-15T08:16:10.812Z,20.48
2022-10-15T08:18:38.903Z,20.48
2022-10-15T08:21:05.703Z,20.50
2022-10-15T08:23:32.316Z,20.53
2022-10-15T08:25:58.774Z,20.54
2022-10-15T08:28:25.237Z,20.48
2022-10-15T08:30:51.732Z,20.36
2022-10-15T08:33:18.176Z,20.27
2022-10-15T08:35:45.804Z,20.22
2022-10-15T08:38:14.814Z,20.23
2022-10-15T08:40:46.813Z,20.29
2022-10-15T08:43:18.300Z,20.34
2022-10-15T08:45:45.000Z,20.39
2022-10-15T08:48:12.614Z,20.41
2022-10-15T08:50:40.742Z,20.45
2022-10-15T08:53:12.291Z,20.45
2022-10-15T08:55:40.561Z,20.47
2022-10-15T08:58:12.675Z,20.51
2022-10-15T09:00:42.974Z,20.49
2022-10-15T09:03:18.213Z,20.48
2022-10-15T09:05:49.957Z,20.54
2022-10-15T09:08:23.273Z,20.56
2022-10-15T09:10:51.630Z,20.57
2022-10-15T09:13:20.873Z,20.56
2022-10-15T09:15:50.781Z,20.46
2022-10-15T09:18:20.041Z,20.36
2022-10-15T09:20:47.022Z,20.30
2022-10-15T09:23:16.824Z,20.25
2022-10-15T09:25:45.683Z,20.20
2022-10-15T09:28:14.528Z,20.24
2022-10-15T09:30:44.097Z,20.31
2022-10-15T09:33:15.931Z,20.34
2022-10-15T09:35:43.712Z,20.36
2022-10-15T09:38:17.762Z,20.39
2022-10-15T09:40:52.567Z,20.42
2022-10-15T09:43:22.313Z,20.42
2022-10-15T09:45:48.656Z,20.45
2022-10-15T09:48:17.450Z,20.46
2022-10-15T09:50:45.200Z,20.46
2022-10-15T09:53:16.197Z,20.50
2022-10-15T09:55:45.480Z,20.50
2022-10-15T09:58:16.722Z,20.54
2022-10-15T10:00:52.197Z,20.54
2022-10-15T10:03:18.910Z,20.51
2022-10-15T10:05:45.563Z,20.41
2022-10-15T10:08:17.189Z,20.34
2022-10-15T10:10:46.093Z,20.30
2022-10-15T10:13:22.601Z,20.24
2022-10-15T10:15:56.043Z,20.20
2022-10-15T10:18:25.336Z,20.27
2022-10-15T10:20:52.807Z,20.31
2022-10-15T10:23:21.608Z,20.36
2022-10-15T10:25:48.043Z,20.40
2022-10-15T10:28:16.815Z,20.42
2022-10-15T10:30:49.098Z,20.43
2022-10-15T10:33:20.733Z,20.45
2022-10-15T10:35:48.647Z,20.47
2022-10-15T10:38:19.679Z,20.49
2022-10-15T10:40:50.177Z,20.50
2022-10-15T10:43:19.181Z,20.52
2022-10-15T10:45:53.651Z,20.53
2022-10-15T10:48:21.452Z,20.54
2022-10-15T10:50:47.892Z,20.52
2022-10-15T10:53:20.139Z,20.42
2022-10-15T10:55:46.482Z,20.33
2022-10-15T10:58:17.300Z,20.29
2022-10-15T11:00:44.843Z,20.25
2022-10-15T11:03:19.721Z,20.32
2022-10-15T11:05:47.563Z,20.36
2022-10-15T11:08:19.684Z,20.39
2022-10-15T11:10:49.754Z,20.44
2022-10-15T11:13:28.922Z,20.45
2022-10-15T11:16:00.486Z,20.46
2022-10-15T11:18:32.429Z,20.49
2022-10-15T11:21:05.956Z,20.51
2022-10-15T11:23:40.263Z,20.54
2022-10-15T11:26:18.633Z,20.54
2022-10-15T11:28:51.319Z,20.54
2022-10-15T11:31:25.156Z,20.45
2022-10-15T11:33:59.830Z,20.33
2022-10-15T11:36:33.292Z,20.27
2022-10-15T11:39:03.735Z,20.31
2022-10-15T11:41:39.486Z,20.37
2022-10-15T11:44:17.929Z,20.42
2022-10-15T11:46:50.400Z,20.45
2022-10-15T11:49:26.372Z,20.47
2022-10-15T11:52:05.635Z,20.49
2022-10-15T11:54:36.825Z,20.49
2022-10-15T11:57:03.783Z,20.53
2022-10-15T11:59:33.589Z,20.55
2022-10-15T12:02:01.129Z,20.57
2022-10-15T12:04:32.680Z,20.56
2022-10-15T12:07:01.274Z,20.55
2022-10-15T12:09:30.146Z,20.46
2022-10-15T12:12:04.293Z,20.33
2022-10-15T12:14:34.562Z,20.29
2022-10-15T12:17:04.810Z,20.25
2022-10-15T12:19:37.306Z,20.24
2022-10-15T12:22:05.424Z,20.30
2022-10-15T12:24:46.588Z,20.36
2022-10-15T12:27:16.732Z,20.39
2022-10-15T12:29:43.086Z,20.43
2022-10-15T12:32:20.497Z,20.45
2022-10-15T12:34:54.106Z,20.47
2022-10-15T12:37:22.865Z,20.49
2022-10-15T12:39:55.166Z,20.52
2022-10-15T12:42:23.086Z,20.54
2022-10-15T12:44:49.631Z,20.53
2022-10-15T12:47:35.897Z,20.55
2022-10-15T12:50:05.396Z,20.57
2022-10-15T12:52:46.552Z,20.57
2022-10-15T12:55:20.624Z,20.52
2022-10-15T12:57:56.147Z,20.40
2022-10-15T13:00:31.788Z,20.33
2022-10-15T13:03:07.606Z,20.29
2022-10-15T13:05:35.730Z,20.24
2022-10-15T13:08:03.587Z,20.20
2022-10-15T13:10:32.937Z,20.23
2022-10-15T13:13:01.065Z,20.31
2022-10-15T13:15:29.290Z,20.34
2022-10-15T13:17:56.265Z,20.38
2022-10-15T13:20:29.193Z,20.41
2022-10-15T13:23:18.749Z,20.44
2022-10-15T13:26:09.365Z,20.48
2022-10-15T13:28:36.788Z,20.48
2022-10-15T13:31:05.208Z,20.49
2022-10-15T13:33:31.849Z,20.53
2022-10-15T13:36:04.610Z,20.54
2022-10-15T13:38:33.244Z,20.54
2022-10-15T13:41:00.144Z,20.49
2022-10-15T13:43:26.840Z,20.41
2022-10-15T13:45:54.338Z,20.31
2022-10-15T13:48:21.679Z,20.26
2022-10-15T13:50:48.875Z,20.24
2022-10-15T13:53:17.891Z,20.24
2022-10-15T13:55:46.949Z,20.30
2022-10-15T13:58:17.460Z,20.35
2022-10-15T14:00:48.985Z,20.38
2022-10-15T14:03:17.493Z,20.42
2022-10-15T14:05:43.888Z,20.43
2022-10-15T14:08:15.389Z,20.45
2022-10-15T14:10:41.751Z,20.48
2022-10-15T14:13:10.296Z,20.49
2022-10-15T14:15:40.902Z,20.53
2022-10-15T14:18:07.394Z,20.54
2022-10-15T14:20:33.874Z,20.55
2022-10-15T14:23:00.201Z,20.57
2022-10-15T14:25:27.439Z,20.57
2022-10-15T14:27:53.906Z,20.55
2022-10-15T14:30:24.823Z,20.45
2022-10-15T14:32:51.296Z,20.37
2022-10-15T14:35:28.965Z,20.33
2022-10-15T14:37:59.640Z,20.27
2022-10-15T14:40:26.659Z,20.25
2022-10-15T14:43:02.140Z,20.31
2022-10-15T14:45:30.623Z,20.37
2022-10-15T14:47:57.984Z,20.40
2022-10-15T14:50:25.621Z,20.45
2022-10-15T14:52:53.280Z,20.47
2022-10-15T14:55:27.023Z,20.48
2022-10-15T14:57:53.415Z,20.53
2022-10-15T15:00:24.060Z,20.54
2022-10-15T15:02:51.999Z,20.55
2022-10-15T15:05:21.134Z,20.57
2022-10-15T15:07:47.544Z,20.57
2022-10-15T15:10:14.056Z,20.58
2022-10-15T15:12:42.904Z,20.56
2022-10-15T15:15:12.701Z,20.46
2022-10-15T15:17:39.106Z,20.38
2022-10-15T15:20:07.186Z,20.32
2022-10-15T15:22:35.637Z,20.30
2022-10-15T15:25:03.747Z,20.25
2022-10-15T15:27:31.126Z,20.22
2022-10-15T15:29:57.825Z,20.30
2022-10-15T15:32:24.771Z,20.36
2022-10-15T15:34:52.200Z,20.41
2022-10-15T15:37:20.828Z,20.41
2022-10-15T15:39:47.612Z,20.45
2022-10-15T15:42:14.913Z,20.47
2022-10-15T15:44:41.270Z,20.49
2022-10-15T15:47:07.564Z,20.51
2022-10-15T15:49:33.970Z,20.52
2022-10-15T15:52:00.331Z,20.54
2022-10-15T15:54:28.296Z,20.55
2022-10-15T15:56:54.604Z,20.58
2022-10-15T15:59:20.967Z,20.54
2022-10-15T16:01:47.343Z,20.43
2022-10-15T16:04:13.700Z,20.35
2022-10-15T16:06:40.330Z,20.30
2022-10-15T16:09:06.803Z,20.26
2022-10-15T16:11:34.520Z,20.21
2022-10-15T16:14:00.819Z,20.27
2022-10-15T16:16:27.157Z,20.32
2022-10-15T16:18:53.667Z,20.37
2022-10-15T16:21:21.589Z,20.40
2022-10-15T16:23:47.941Z,20.44
2022-10-15T16:26:14.294Z,20.46
2022-10-15T16:28:42.035Z,20.49
2022-10-15T16:31:14.137Z,20.49
2022-10-15T16:33:40.518Z,20.53
2022-10-15T16:36:06.957Z,20.52
2022-10-15T16:38:33.409Z,20.55
2022-10-15T16:40:59.986Z,20.56
2022-10-15T16:43:26.490Z,20.57
2022-10-15T16:45:56.145Z,20.58
2022-10-15T16:48:22.505Z,20.51
2022-10-15T16:50:57.776Z,20.40
2022-10-15T16:53:24.210Z,20.31
2022-10-15T16:55:50.518Z,20.25
2022-10-15T16:58:16.834Z,20.21
2022-10-15T17:00:43.162Z,20.25
2022-10-15T17:03:10.787Z,20.33
2022-10-15T17:05:37.117Z,20.40
2022-10-15T17:08:03.521Z,20.41
2022-10-15T17:10:29.847Z,20.42
2022-10-15T17:12:56.261Z,20.44
2022-10-15T17:15:24.094Z,20.46
2022-10-15T17:17:50.464Z,20.48
2022-10-15T17:20:18.123Z,20.49
2022-10-15T17:22:44.456Z,20.52
2022-10-15T17:25:10.952Z,20.53
2022-10-15T17:27:37.264Z,20.54
2022-10-15T17:30:03.829Z,20.56
2022-10-15T17:32:30.202Z,20.49
2022-10-15T17:34:59.100Z,20.36
2022-10-15T17:37:30.558Z,20.28
2022-10-15T17:39:57.016Z,20.24
2022-10-15T17:42:23.701Z,20.24
2022-10-15T17:44:50.529Z,20.31
2022-10-15T17:47:16.875Z,20.36
2022-10-15T17:49:43.263Z,20.40
2022-10-15T17:52:09.589Z,20.42
2022-10-15T17:54:37.264Z,20.44
2022-10-15T17:57:03.766Z,20.46
2022-10-15T17:59:30.168Z,20.47
2022-10-15T18:01:59.150Z,20.48
2022-10-15T18:04:26.529Z,20.49
2022-10-15T18:06:52.832Z,20.52
2022-10-15T18:09:19.125Z,20.53
2022-10-15T18:11:46.805Z,20.54
2022-10-15T18:14:13.235Z,20.54
2022-10-15T18:16:39.780Z,20.43
2022-10-15T18:19:06.118Z,20.33
2022-10-15T18:21:32.460Z,20.25
2022-10-15T18:23:59.224Z,20.22
2022-10-15T18:26:25.557Z,20.30
2022-10-15T18:28:53.706Z,20.33
2022-10-15T18:31:20.935Z,20.38
2022-10-15T18:33:48.421Z,20.42
2022-10-15T18:36:15.678Z,20.43
2022-10-15T18:38:41.989Z,20.44
2022-10-15T18:41:12.323Z,20.47
2022-10-15T18:43:38.683Z,20.48
2022-10-15T18:46:06.406Z,20.49
2022-10-15T18:48:32.999Z,20.51
2022-10-15T18:50:59.464Z,20.51
2022-10-15T18:53:25.777Z,20.52
2022-10-15T18:55:52.108Z,20.45
2022-10-15T18:58:18.485Z,20.35
2022-10-15T19:00:44.906Z,20.29
2022-10-15T19:03:12.601Z,20.23
2022-10-15T19:05:38.937Z,20.26
2022-10-15T19:08:05.338Z,20.32
2022-10-15T19:10:31.900Z,20.36
2022-10-15T19:12:58.249Z,20.39
2022-10-15T19:15:24.577Z,20.40
2022-10-15T19:17:50.979Z,20.42
2022-10-15T19:20:18.820Z,20.43
2022-10-15T19:22:45.124Z,20.45
2022-10-15T19:25:11.477Z,20.45
2022-10-15T19:27:37.788Z,20.46
2022-10-15T19:30:04.368Z,20.51
2022-10-15T19:32:30.801Z,20.48
2022-10-15T19:34:57.088Z,20.49
2022-10-15T19:37:24.912Z,20.51
2022-10-15T19:39:51.418Z,20.53
2022-10-15T19:42:17.738Z,20.42
2022-10-15T19:44:44.188Z,20.30
2022-10-15T19:47:10.535Z,20.25
2022-10-15T19:49:36.852Z,20.20
2022-10-15T19:52:03.341Z,20.17
2022-10-15T19:54:30.994Z,20.24
2022-10-15T19:56:57.269Z,20.29
2022-10-15T19:59:24.474Z,20.33
2022-10-15T20:01:50.878Z,20.35
2022-10-15T20:04:17.421Z,20.38
2022-10-15T20:06:43.811Z,20.40
2022-10-15T20:09:10.197Z,20.41
2022-10-15T20:11:37.863Z,20.42
2022-10-15T20:14:04.328Z,20.43
2022-10-15T20:16:33.058Z,20.45
2022-10-15T20:19:00.712Z,20.46
2022-10-15T20:21:27.000Z,20.45
2022-10-15T20:23:53.463Z,20.47
2022-10-15T20:26:19.762Z,20.47
2022-10-15T20:28:47.451Z,20.41
2022-10-15T20:31:14.881Z,20.31
2022-10-15T20:33:41.202Z,20.23
2022-10-15T20:36:08.403Z,20.21
2022-10-15T20:38:35.402Z,20.27
2022-10-15T20:41:05.535Z,20.31
2022-10-15T20:43:31.841Z,20.35
2022-10-15T20:45:59.495Z,20.37
2022-10-15T20:48:26.589Z,20.40
2022-10-15T20:50:53.497Z,20.41
2022-10-15T20:53:20.980Z,20.42
2022-10-15T20:55:47.488Z,20.42
2022-10-15T21:00:40.483Z,20.45
2022-10-15T21:03:08.123Z,20.46
2022-10-15T21:05:34.484Z,20.46
2022-10-15T21:08:00.933Z,20.48
2022-10-15T21:10:27.399Z,20.48
2022-10-15T21:12:53.710Z,20.38
2022-10-15T21:15:20.062Z,20.30
2022-10-15T21:17:46.417Z,20.23
2022-10-15T21:20:14.055Z,20.22
2022-10-15T21:22:40.435Z,20.27
2022-10-15T21:25:06.969Z,20.32
2022-10-15T21:27:33.679Z,20.35
2022-10-15T21:29:59.985Z,20.36
2022-10-15T21:32:26.969Z,20.39
2022-10-15T21:34:53.410Z,20.39
2022-10-15T21:37:21.018Z,20.43
2022-10-15T21:39:47.433Z,20.44
2022-10-15T21:42:13.786Z,20.45
2022-10-15T21:44:40.086Z,20.45
2022-10-15T21:47:08.343Z,20.46
2022-10-15T21:49:36.802Z,20.47
2022-10-15T21:52:03.177Z,20.39
2022-10-15T21:54:30.824Z,20.31
2022-10-15T21:56:57.210Z,20.24
2022-10-15T21:59:23.774Z,20.20
2022-10-15T22:01:50.139Z,20.25
2022-10-15T22:04:16.826Z,20.30
2022-10-15T22:06:43.252Z,20.33
2022-10-15T22:09:10.160Z,20.34
2022-10-15T22:11:38.907Z,20.37
2022-10-15T22:14:06.448Z,20.38
2022-10-15T22:16:33.909Z,20.40
2022-10-15T22:19:00.376Z,20.40
2022-10-15T22:21:27.921Z,20.42
2022-10-15T22:23:54.909Z,20.43
2022-10-15T22:26:22.309Z,20.44
2022-10-15T22:28:51.790Z,20.45
2022-10-15T22:31:18.253Z,20.43
2022-10-15T22:33:45.352Z,20.31
2022-10-15T22:36:13.638Z,20.23
2022-10-15T22:38:40.404Z,20.18
2022-10-15T22:41:06.812Z,20.16
2022-10-15T22:43:33.780Z,20.22
2022-10-15T22:46:01.691Z,20.27
2022-10-15T22:48:28.073Z,20.31
2022-10-15T22:50:55.685Z,20.32
2022-10-15T22:53:21.997Z,20.34
2022-10-15T22:55:54.262Z,20.35
2022-10-15T22:58:20.589Z,20.38
2022-10-15T23:00:46.975Z,20.38
2022-10-15T23:03:14.694Z,20.41
2022-10-15T23:05:41.014Z,20.43
2022-10-15T23:08:07.383Z,20.44
2022-10-15T23:10:33.737Z,20.46
2022-10-15T23:13:00.077Z,20.44
2022-10-15T23:15:26.521Z,20.44
2022-10-15T23:17:52.842Z,20.47
2022-10-15T23:20:20.534Z,20.45
2022-10-15T23:22:46.868Z,20.35
2022-10-15T23:25:13.206Z,20.27
2022-10-15T23:27:39.532Z,20.22
2022-10-15T23:30:14.413Z,20.19
2022-10-15T23:32:50.903Z,20.24
2022-10-15T23:35:17.402Z,20.31
2022-10-15T23:37:45.075Z,20.35
2022-10-15T23:40:11.675Z,20.35
2022-10-15T23:42:38.005Z,20.37
2022-10-15T23:45:04.590Z,20.38
2022-10-15T23:47:30.987Z,20.41
2022-10-15T23:49:57.321Z,20.41
2022-10-15T23:52:23.673Z,20.42
2022-10-15T23:54:51.296Z,20.44
2022-10-15T23:57:17.606Z,20.45
2022-10-15T23:59:43.901Z,20.46
